Date,TemperatureHighF,TemperatureAvgF,TemperatureLowF,DewpointHighF,DewpointAvgF,DewpointLowF,HumidityHigh,HumidityAvg,HumidityLow,PressureMaxIn,PressureMinIn,WindSpeedMaxMPH,WindSpeedAvgMPH,GustSpeedMaxMPH,PrecipitationSumIn
2013-1-2,36.7,34.6,32.9,36.7,34.6,32.9,100,100,100,30.36,30.15,0,0,0,0.00
2013-1-3,42.6,36.6,27.1,42.6,35.5,27.1,100,96,79,30.47,30.27,14,3,14,0.00
2013-1-4,49.1,44.5,41.2,39.2,34.6,29.5,86,69,55,30.27,30.03,23,6,23,0.00
2013-1-5,50.0,43.9,33.8,46.0,33.1,19.2,92,67,48,30.12,29.88,26,8,26,0.00
2013-1-6,36.5,34.3,32.7,33.7,23.5,19.9,90,65,55,30.12,29.91,15,5,15,0.00
2013-1-7,36.3,34.7,32.0,34.0,32.3,29.1,92,91,90,30.12,29.97,9,4,9,0.00
2013-1-9,29.7,29.6,29.5,26.8,26.7,26.6,89,89,89,30.12,30.12,5,3,5,0.00
2013-1-11,33.8,29.4,26.2,32.5,23.4,18.8,95,78,72,29.94,29.83,0,0,0,0.08
2013-1-12,32.4,28.1,22.6,24.5,18.8,14.7,82,68,55,30.06,29.94,8,1,8,0.00
2013-1-13,32.7,29.1,26.4,30.1,25.4,23.1,90,86,80,30.09,30.03,15,4,15,0.00
2013-1-14,28.8,28.0,27.0,24.3,21.2,18.7,83,75,70,30.03,29.97,18,7,18,0.00
2013-1-15,38.5,38.2,37.9,38.5,38.1,37.7,100,99,99,29.83,29.74,10,4,10,0.04
2013-1-30,43.2,43.2,43.2,43.2,43.2,43.2,100,100,100,29.85,29.85,6,6,6,0.00
2013-2-1,42.8,42.3,41.7,31.1,30.2,29.7,64,62,60,29.71,29.62,7,4,7,0.71
2013-2-2,48.4,45.1,41.0,47.0,43.4,39.6,97,94,82,29.41,29.26,22,6,22,0.47
2013-2-3,41.5,36.5,31.5,39.7,34.2,23.8,96,92,73,29.91,29.41,20,7,20,0.31
2013-2-4,37.2,33.2,26.4,32.8,26.2,19.3,87,75,66,29.91,29.85,12,4,12,0.00
2013-2-5,37.2,36.7,34.9,34.3,33.5,32.0,89,88,87,29.91,29.85,6,3,6,0.00
2013-2-7,35.8,35.5,35.1,34.8,34.3,33.8,96,95,95,29.65,29.65,10,6,10,0.55
2013-2-11,26.2,26.2,26.2,23.5,23.5,23.5,89,89,89,29.88,29.88,8,6,8,0.00
2013-2-13,43.0,39.9,38.5,31.8,30.8,29.5,74,70,59,29.97,29.94,15,6,15,0.24
2013-2-14,43.0,38.6,36.5,36.7,30.5,26.9,90,73,59,30.06,29.97,8,3,8,0.04
2013-2-15,39.2,39.1,39.0,37.4,37.3,37.3,94,94,93,30.00,30.00,0,0,0,0.00
2013-2-17,38.5,36.6,35.4,32.5,28.9,27.0,87,74,68,30.15,30.12,8,2,8,0.00
2013-2-18,35.4,34.0,32.5,29.4,27.5,25.2,79,77,74,30.15,30.12,6,2,6,0.00
2013-2-19,36.9,35.4,34.5,32.3,28.8,24.7,89,77,61,29.83,29.83,11,5,11,0.00
2013-2-20,37.0,33.4,27.5,34.8,25.9,19.5,94,75,55,30.03,29.83,11,4,11,0.00
2013-2-21,27.7,25.4,23.4,20.6,19.2,17.5,81,77,73,30.03,30.00,6,2,6,0.00
2013-2-22,35.4,35.2,34.9,33.4,33.2,32.5,93,92,91,29.74,29.71,11,5,11,0.00
2013-2-23,37.6,37.6,37.6,37.3,37.3,37.3,99,99,99,29.68,29.68,8,6,8,0.00
2013-2-28,39.4,39.3,39.2,36.7,36.6,36.5,90,90,90,30.27,30.27,3,0,3,0.83
2013-3-12,49.3,48.2,47.7,44.5,39.7,37.5,88,73,64,29.44,29.44,9,4,9,0.08
2013-3-13,53.8,49.0,46.0,53.0,45.5,38.9,98,88,69,29.44,29.41,8,2,8,0.08
2013-3-14,47.8,41.3,34.5,46.5,40.2,33.8,98,96,89,29.44,29.23,19,7,19,0.39
2013-3-22,41.9,34.4,30.6,24.6,21.0,19.2,64,58,50,29.91,29.80,17,7,17,1.06
2013-3-23,33.6,29.7,26.4,23.0,19.3,14.4,76,65,59,30.06,29.91,11,3,11,0.39
2013-3-24,34.5,27.2,20.5,14.3,9.1,6.1,60,46,38,30.15,30.03,13,5,13,0.39
2013-3-25,34.7,29.9,27.0,26.3,12.2,6.4,84,49,40,30.03,29.74,17,6,17,0.39
2013-3-26,33.3,31.8,30.9,30.1,29.0,28.3,90,89,88,29.71,29.68,5,3,6,0.00
2013-3-27,31.1,30.5,30.2,29.3,28.4,28.1,93,92,90,29.74,29.71,10,3,10,0.00